Flight Briefing for CPX305

Departure Arrival
Seattle-Tacoma International Airport (KSEA)
Click to view FAA NOTAMS
Chicago/Rockford International Airport (KRFD)
Click to view FAA NOTAMS
Departure Time Arrival Time
N/A N/A
Aircraft Distance
B767-300BDSF 1662nm
Departure METAR Arrival METAR
KSEA 200953Z 10013G18KT 10SM CLR 18/M05 A2993 RMK AO2 SLP138 T01831050 KRFD 200954Z 21003KT 10SM SCT055 BKN075 OVC095 05/01 A3012 RMK AO2 SLP204 T00500006
Suggested Route
NORMY J12 EPH HLN DPR J16 FSD DBQ


View recent IFR Routes data
Notes



Charts and Procedures

Charts for KSEA
No chart available
Charts for KRFD
No chart available

Windy.com Weather Map